createdAt,value
2017-06-28T00:00:46.841Z,0
2017-06-28T00:01:57.825Z,0
2017-06-28T00:03:08.865Z,0
2017-06-28T00:04:20.061Z,0
2017-06-28T00:05:31.062Z,0
2017-06-28T00:06:42.058Z,0
2017-06-28T00:07:53.047Z,0
2017-06-28T00:09:04.084Z,0
2017-06-28T00:10:15.081Z,0
2017-06-28T00:11:26.067Z,0
2017-06-28T00:12:37.261Z,0
2017-06-28T00:13:48.452Z,0
2017-06-28T00:14:59.489Z,0
2017-06-28T00:16:10.480Z,0
2017-06-28T00:17:21.472Z,0
2017-06-28T00:18:32.465Z,0
2017-06-28T00:19:43.447Z,0
2017-06-28T00:20:54.435Z,0
2017-06-28T00:22:05.426Z,0
2017-06-28T00:23:16.630Z,0
2017-06-28T00:24:27.625Z,0
2017-06-28T00:25:38.653Z,0
2017-06-28T00:26:49.644Z,0
2017-06-28T00:28:00.637Z,0
2017-06-28T00:29:11.625Z,0
2017-06-28T00:30:22.610Z,0
2017-06-28T00:31:33.855Z,0
2017-06-28T00:32:44.840Z,0
2017-06-28T00:33:55.834Z,0
2017-06-28T00:35:06.822Z,0
2017-06-28T00:36:17.807Z,0
2017-06-28T00:37:28.837Z,0
2017-06-28T00:38:39.835Z,0
2017-06-28T00:39:50.821Z,0
2017-06-28T00:41:01.808Z,0
2017-06-28T00:42:12.997Z,0
2017-06-28T00:43:24.041Z,0
2017-06-28T00:44:35.026Z,0
2017-06-28T00:45:46.019Z,0
2017-06-28T00:46:57.012Z,0
2017-06-28T00:48:08.007Z,0
2017-06-28T00:49:19.047Z,0
2017-06-28T00:50:30.237Z,0
2017-06-28T00:51:41.423Z,0
2017-06-28T00:52:52.403Z,0
2017-06-28T00:54:03.394Z,0
2017-06-28T00:55:14.423Z,0
2017-06-28T00:56:25.414Z,0
2017-06-28T00:57:36.412Z,0
2017-06-28T00:58:47.620Z,0
2017-06-28T00:59:58.624Z,0
2017-06-28T01:01:09.659Z,0
2017-06-28T01:02:20.846Z,0
2017-06-28T01:03:31.835Z,0
2017-06-28T01:04:42.831Z,0
2017-06-28T01:05:53.818Z,0
2017-06-28T01:07:05.057Z,0
2017-06-28T01:08:16.046Z,0
2017-06-28T01:09:27.050Z,0
2017-06-28T01:10:38.040Z,0
2017-06-28T01:11:49.059Z,0
2017-06-28T01:13:00.099Z,0
2017-06-28T01:14:11.088Z,0
2017-06-28T01:15:22.304Z,0
2017-06-28T01:16:33.503Z,0
2017-06-28T01:17:44.495Z,0
2017-06-28T01:18:55.746Z,0
2017-06-28T01:20:06.731Z,0
2017-06-28T01:21:17.731Z,0
2017-06-28T01:22:28.715Z,0
2017-06-28T01:23:39.705Z,0
2017-06-28T01:24:50.743Z,0
2017-06-28T01:26:01.743Z,0
2017-06-28T01:27:12.725Z,0
2017-06-28T01:28:23.725Z,0
2017-06-28T01:29:34.719Z,0
2017-06-28T01:30:45.916Z,0
2017-06-28T01:31:57.103Z,0
2017-06-28T01:33:08.093Z,0
2017-06-28T01:34:19.093Z,0
2017-06-28T01:35:30.134Z,0
2017-06-28T01:36:41.135Z,0
2017-06-28T01:37:52.122Z,0
2017-06-28T01:39:03.317Z,0
2017-06-28T01:40:14.510Z,0
2017-06-28T01:41:25.560Z,0
2017-06-28T01:42:36.757Z,0
2017-06-28T01:43:47.949Z,0
2017-06-28T01:44:58.940Z,0
2017-06-28T01:46:09.922Z,0
2017-06-28T01:47:20.969Z,0
2017-06-28T01:48:31.956Z,0
2017-06-28T01:49:42.985Z,0
2017-06-28T01:50:53.973Z,0
2017-06-28T01:52:04.994Z,0
2017-06-28T01:53:16.029Z,0
2017-06-28T01:54:27.223Z,0
2017-06-28T01:55:38.205Z,0
2017-06-28T01:56:49.186Z,0
2017-06-28T01:58:00.178Z,0
2017-06-28T01:59:11.214Z,0
2017-06-28T02:00:22.401Z,0
2017-06-28T02:01:33.386Z,0
2017-06-28T02:02:44.372Z,0
2017-06-28T02:03:55.351Z,0
2017-06-28T02:05:06.385Z,0
2017-06-28T02:06:17.370Z,0
2017-06-28T02:07:28.363Z,0
2017-06-28T02:08:39.358Z,0
2017-06-28T02:09:50.348Z,0
2017-06-28T02:11:01.347Z,0
2017-06-28T02:12:12.337Z,0
2017-06-28T02:13:23.325Z,0
2017-06-28T02:14:34.312Z,0
2017-06-28T02:15:45.354Z,0
2017-06-28T02:16:56.546Z,0
2017-06-28T02:18:07.537Z,0
2017-06-28T02:19:18.530Z,0
2017-06-28T02:20:29.920Z,0
2017-06-28T02:21:41.155Z,0
2017-06-28T02:22:52.134Z,0
2017-06-28T02:24:03.324Z,0
2017-06-28T02:25:14.320Z,0
2017-06-28T02:26:25.308Z,0
2017-06-28T02:27:36.350Z,0
2017-06-28T02:28:47.543Z,0
2017-06-28T02:29:58.543Z,0
2017-06-28T02:31:09.522Z,0
2017-06-28T02:32:20.516Z,0
2017-06-28T02:33:31.550Z,0
2017-06-28T02:34:42.537Z,0
2017-06-28T02:35:53.524Z,4
2017-06-28T02:37:04.512Z,4
2017-06-28T02:38:15.504Z,4
2017-06-28T02:39:26.536Z,0
2017-06-28T02:40:37.534Z,4
2017-06-28T02:41:48.723Z,4
2017-06-28T02:42:59.706Z,4
2017-06-28T02:44:10.697Z,4
2017-06-28T02:45:21.739Z,8
2017-06-28T02:46:32.716Z,4
2017-06-28T02:47:43.702Z,8
2017-06-28T02:48:54.698Z,8
2017-06-28T02:50:05.686Z,12
2017-06-28T02:51:16.725Z,12
2017-06-28T02:52:27.720Z,12
2017-06-28T02:53:38.712Z,12
2017-06-28T02:54:49.707Z,16
2017-06-28T02:56:00.922Z,20
2017-06-28T02:57:11.956Z,20
2017-06-28T02:58:23.139Z,24
2017-06-28T02:59:34.126Z,24
2017-06-28T03:00:45.119Z,28
2017-06-28T03:01:56.313Z,32
2017-06-28T03:03:07.546Z,32
2017-06-28T03:04:18.531Z,36
2017-06-28T03:05:29.515Z,40
2017-06-28T03:06:40.527Z,40
2017-06-28T03:07:51.728Z,44
2017-06-28T03:09:02.763Z,48
2017-06-28T03:10:13.948Z,44
2017-06-28T03:11:24.948Z,48
2017-06-28T03:12:35.932Z,52
2017-06-28T03:13:46.921Z,56
2017-06-28T03:14:57.974Z,60
2017-06-28T03:16:08.963Z,64
2017-06-28T03:17:19.949Z,68
2017-06-28T03:18:30.936Z,72
2017-06-28T03:19:41.923Z,76
2017-06-28T03:20:52.911Z,84
2017-06-28T03:22:03.892Z,96
2017-06-28T03:23:15.079Z,108
2017-06-28T03:24:26.066Z,116
2017-06-28T03:25:37.103Z,124
2017-06-28T03:26:48.092Z,128
2017-06-28T03:27:59.132Z,132
2017-06-28T03:29:10.128Z,144
2017-06-28T03:30:21.108Z,156
2017-06-28T03:31:32.153Z,168
2017-06-28T03:32:43.140Z,180
2017-06-28T03:33:54.144Z,188
2017-06-28T03:35:05.142Z,200
2017-06-28T03:36:16.150Z,204
2017-06-28T03:37:27.192Z,204
2017-06-28T03:38:38.182Z,200
2017-06-28T03:39:49.172Z,208
2017-06-28T03:41:00.164Z,216
2017-06-28T03:42:11.154Z,216
2017-06-28T03:43:22.196Z,212
2017-06-28T03:44:33.190Z,204
2017-06-28T03:45:44.181Z,196
2017-06-28T03:46:55.160Z,192
2017-06-28T03:48:06.352Z,184
2017-06-28T03:49:17.398Z,164
2017-06-28T03:50:28.379Z,152
2017-06-28T03:51:39.375Z,140
2017-06-28T03:52:50.356Z,136
2017-06-28T03:54:01.347Z,124
2017-06-28T03:55:12.378Z,116
2017-06-28T03:56:23.373Z,112
2017-06-28T03:57:34.384Z,104
2017-06-28T03:58:45.382Z,96
2017-06-28T03:59:56.372Z,96
2017-06-28T04:01:07.414Z,96
2017-06-28T04:02:18.402Z,100
2017-06-28T04:03:29.385Z,100
2017-06-28T04:04:40.364Z,108
2017-06-28T04:05:51.360Z,104
2017-06-28T04:07:02.401Z,104
2017-06-28T04:08:13.391Z,108
2017-06-28T04:09:24.426Z,124
2017-06-28T04:10:35.625Z,136
2017-06-28T04:11:46.608Z,156
2017-06-28T04:12:57.853Z,176
2017-06-28T04:14:08.840Z,204
2017-06-28T04:15:19.834Z,232
2017-06-28T04:16:30.825Z,268
2017-06-28T04:17:41.811Z,304
2017-06-28T04:18:52.854Z,360
2017-06-28T04:20:03.840Z,424
2017-06-28T04:21:14.833Z,492
2017-06-28T04:22:25.818Z,580
2017-06-28T04:23:37.008Z,676
2017-06-28T04:24:48.247Z,744
2017-06-28T04:25:59.440Z,792
2017-06-28T04:27:10.630Z,812
2017-06-28T04:28:21.828Z,828
2017-06-28T04:29:32.825Z,856
2017-06-28T04:30:44.022Z,876
2017-06-28T04:31:55.007Z,916
2017-06-28T04:33:06.197Z,932
2017-06-28T04:34:17.186Z,912
2017-06-28T04:35:28.220Z,900
2017-06-28T04:36:39.208Z,928
2017-06-28T04:37:50.199Z,960
2017-06-28T04:39:01.192Z,984
2017-06-28T04:40:12.182Z,992
2017-06-28T04:41:23.215Z,996
2017-06-28T04:42:34.222Z,968
2017-06-28T04:43:45.204Z,948
2017-06-28T04:44:56.203Z,928
2017-06-28T04:46:07.389Z,944
2017-06-28T04:47:18.626Z,992
2017-06-28T04:48:29.615Z,1068
2017-06-28T04:49:40.608Z,1120
2017-06-28T04:50:51.587Z,1112
2017-06-28T04:52:02.779Z,1120
2017-06-28T04:53:13.815Z,1104
2017-06-28T04:54:25.009Z,1052
2017-06-28T04:55:35.995Z,996
2017-06-28T04:56:46.999Z,972
2017-06-28T04:57:57.994Z,996
2017-06-28T04:59:09.028Z,1068
2017-06-28T05:00:20.017Z,1148
2017-06-28T05:01:31.004Z,1204
2017-06-28T05:02:41.997Z,1252
2017-06-28T05:03:52.993Z,1272
2017-06-28T05:05:04.228Z,1232
2017-06-28T05:06:15.219Z,1184
2017-06-28T05:07:26.207Z,1144
2017-06-28T05:08:37.192Z,1136
2017-06-28T05:09:48.190Z,1120
2017-06-28T05:10:59.382Z,1084
2017-06-28T05:12:10.570Z,1032
2017-06-28T05:13:21.572Z,964
2017-06-28T05:14:32.564Z,880
2017-06-28T05:15:43.802Z,800
2017-06-28T05:16:54.787Z,752
2017-06-28T05:18:05.775Z,736
2017-06-28T05:19:16.964Z,748
2017-06-28T05:20:28.164Z,768
2017-06-28T05:21:39.202Z,760
2017-06-28T05:22:50.190Z,764
2017-06-28T05:24:01.577Z,760
2017-06-28T05:25:12.563Z,728
2017-06-28T05:26:23.557Z,716
2017-06-28T05:27:34.594Z,736
2017-06-28T05:28:45.587Z,804
2017-06-28T05:29:56.576Z,916
2017-06-28T05:31:07.759Z,1040
2017-06-28T05:32:18.741Z,1152
2017-06-28T05:33:29.781Z,1244
2017-06-28T05:34:41.174Z,1312
2017-06-28T05:35:52.162Z,1380
2017-06-28T05:37:03.150Z,1476
2017-06-28T05:38:14.136Z,1612
2017-06-28T05:39:25.178Z,1764
2017-06-28T05:40:36.169Z,1916
2017-06-28T05:41:47.595Z,2032
2017-06-28T05:42:58.785Z,2056
2017-06-28T05:44:09.773Z,1968
2017-06-28T05:45:20.806Z,1808
2017-06-28T05:46:31.793Z,1652
2017-06-28T05:47:42.790Z,1476
2017-06-28T05:48:53.976Z,1272
2017-06-28T05:50:04.999Z,1064
2017-06-28T05:51:16.033Z,904
2017-06-28T05:52:27.038Z,808
2017-06-28T05:53:38.023Z,792
2017-06-28T05:54:49.009Z,812
2017-06-28T05:56:00.021Z,840
2017-06-28T05:57:11.111Z,856
2017-06-28T05:58:22.309Z,860
2017-06-28T05:59:33.298Z,884
2017-06-28T06:00:44.285Z,992
2017-06-28T06:01:55.284Z,1180
2017-06-28T06:03:06.325Z,1440
2017-06-28T06:04:17.519Z,1780
2017-06-28T06:05:28.510Z,2228
2017-06-28T06:06:39.496Z,2812
2017-06-28T06:07:50.693Z,3532
2017-06-28T06:09:01.822Z,4192
2017-06-28T06:10:12.837Z,4712
2017-06-28T06:11:23.832Z,5144
2017-06-28T06:12:34.827Z,5524
2017-06-28T06:13:45.811Z,5820
2017-06-28T06:14:57.046Z,6020
2017-06-28T06:16:08.042Z,6176
2017-06-28T06:17:19.035Z,6320
2017-06-28T06:18:30.027Z,6432
2017-06-28T06:19:41.021Z,6524
2017-06-28T06:20:52.010Z,6592
2017-06-28T06:22:03.014Z,6436
2017-06-28T06:23:14.014Z,6336
2017-06-28T06:24:25.011Z,6628
2017-06-28T06:25:36.059Z,6340
2017-06-28T06:26:47.053Z,5808
2017-06-28T06:27:58.049Z,5012
2017-06-28T06:29:09.249Z,4588
2017-06-28T06:30:20.249Z,4252
2017-06-28T06:31:31.315Z,4244
2017-06-28T06:32:42.329Z,4272
2017-06-28T06:33:53.323Z,4292
2017-06-28T06:35:04.321Z,4112
2017-06-28T06:36:15.310Z,4060
2017-06-28T06:37:26.354Z,3880
2017-06-28T06:38:37.348Z,3720
2017-06-28T06:39:48.336Z,3572
2017-06-28T06:40:59.322Z,3476
2017-06-28T06:42:10.310Z,3460
2017-06-28T06:43:21.356Z,3496
2017-06-28T06:44:32.395Z,3556
2017-06-28T06:45:43.588Z,3708
2017-06-28T06:46:54.594Z,4040
2017-06-28T06:48:05.593Z,4288
2017-06-28T06:49:16.665Z,4348
2017-06-28T06:50:27.660Z,4256
2017-06-28T06:51:38.658Z,4148
2017-06-28T06:52:49.652Z,4188
2017-06-28T06:54:00.640Z,4344
2017-06-28T06:55:11.874Z,4540
2017-06-28T06:56:22.863Z,4904
2017-06-28T06:57:33.849Z,5556
2017-06-28T06:58:44.858Z,6084
2017-06-28T06:59:55.856Z,6424
2017-06-28T07:01:06.896Z,7136
2017-06-28T07:02:18.098Z,7764
2017-06-28T07:03:29.292Z,8212
2017-06-28T07:04:40.502Z,7780
2017-06-28T07:05:51.499Z,7044
2017-06-28T07:07:02.522Z,6704
2017-06-28T07:08:13.512Z,6564
2017-06-28T07:09:24.709Z,6308
2017-06-28T07:10:35.709Z,5800
2017-06-28T07:11:47.000Z,5076
2017-06-28T07:12:57.997Z,4548
2017-06-28T07:14:09.001Z,4772
2017-06-28T07:15:19.990Z,5336
2017-06-28T07:16:30.985Z,5816
2017-06-28T07:17:42.033Z,6344
2017-06-28T07:18:53.028Z,6896
2017-06-28T07:20:04.015Z,7700
2017-06-28T07:21:15.213Z,8860
2017-06-28T07:22:26.210Z,8436
2017-06-28T07:23:37.276Z,7352
2017-06-28T07:24:48.275Z,6812
2017-06-28T07:25:59.268Z,6512
2017-06-28T07:27:10.259Z,6216
2017-06-28T07:28:21.253Z,5992
2017-06-28T07:29:32.510Z,6148
2017-06-28T07:30:43.540Z,6104
2017-06-28T07:31:59.602Z,6064
2017-06-28T07:33:24.930Z,4980
2017-06-28T07:34:35.988Z,4348
2017-06-28T07:35:47.187Z,3784
2017-06-28T07:36:58.242Z,3436
2017-06-28T07:38:09.241Z,3384
2017-06-28T07:39:20.438Z,3368
2017-06-28T07:40:31.434Z,3204
2017-06-28T07:41:42.976Z,2960
2017-06-28T07:42:57.562Z,2888
2017-06-28T07:44:13.714Z,2980
2017-06-28T07:45:27.862Z,3148
2017-06-28T07:46:42.645Z,3420
2017-06-28T07:47:55.092Z,3668
2017-06-28T07:49:15.207Z,3760
2017-06-28T07:50:30.501Z,3896
2017-06-28T07:51:42.480Z,4040
2017-06-28T07:53:01.775Z,3968
2017-06-28T07:54:15.666Z,3956
2017-06-28T07:55:27.423Z,4084
2017-06-28T07:56:44.154Z,3812
2017-06-28T07:57:57.373Z,3616
2017-06-28T07:59:15.028Z,3736
2017-06-28T08:00:29.095Z,3800
2017-06-28T08:01:46.982Z,4060
2017-06-28T08:03:19.288Z,4668
2017-06-28T08:04:30.318Z,5432
2017-06-28T08:05:42.126Z,6100
2017-06-28T08:07:00.885Z,6320
2017-06-28T08:08:19.936Z,5816
2017-06-28T08:09:43.879Z,5644
2017-06-28T08:11:07.708Z,5332
2017-06-28T08:12:20.752Z,5016
2017-06-28T08:13:32.597Z,4972
2017-06-28T08:14:43.862Z,4968
2017-06-28T08:15:55.021Z,4660
2017-06-28T08:17:11.479Z,4380
2017-06-28T08:18:33.942Z,4020
2017-06-28T08:19:46.411Z,3844
2017-06-28T08:20:57.512Z,3768
2017-06-28T08:22:08.494Z,3800
2017-06-28T08:23:19.492Z,3896
2017-06-28T08:24:30.529Z,3860
2017-06-28T08:25:41.998Z,3788
2017-06-28T08:26:54.249Z,3800
2017-06-28T08:28:05.268Z,3880
2017-06-28T08:29:16.287Z,4072
2017-06-28T08:30:27.292Z,4392
2017-06-28T08:31:38.953Z,4804
2017-06-28T08:32:49.994Z,5252
2017-06-28T08:34:03.713Z,5736
2017-06-28T08:35:17.190Z,6176
2017-06-28T08:36:32.409Z,6612
2017-06-28T08:37:45.586Z,6948
2017-06-28T08:39:02.843Z,7220
2017-06-28T08:40:16.602Z,7472
2017-06-28T08:41:27.599Z,7892
2017-06-28T08:42:38.602Z,8484
2017-06-28T08:43:49.667Z,9236
2017-06-28T08:45:00.865Z,10024
2017-06-28T08:46:12.277Z,10764
2017-06-28T08:47:23.266Z,11548
2017-06-28T08:48:34.280Z,11904
2017-06-28T08:49:45.334Z,11896
2017-06-28T08:50:56.330Z,11588
2017-06-28T08:52:07.325Z,11744
2017-06-28T08:53:18.337Z,12320
2017-06-28T08:54:29.363Z,12568
2017-06-28T08:55:40.413Z,12772
2017-06-28T08:56:51.421Z,15520
2017-06-28T08:58:02.426Z,18848
2017-06-28T08:59:13.629Z,13648
2017-06-28T09:00:24.627Z,13088
2017-06-28T09:01:35.921Z,12144
2017-06-28T09:02:46.937Z,11688
2017-06-28T09:03:57.940Z,11596
2017-06-28T09:05:09.187Z,11824
2017-06-28T09:06:20.388Z,12804
2017-06-28T09:07:31.430Z,13976
2017-06-28T09:08:42.457Z,15392
2017-06-28T09:09:53.458Z,16320
2017-06-28T09:11:04.490Z,18208
2017-06-28T09:12:15.498Z,26400
2017-06-28T09:13:27.726Z,37856
2017-06-28T09:14:38.949Z,29600
2017-06-28T09:15:49.944Z,27360
2017-06-28T09:17:00.943Z,37952
2017-06-28T09:18:12.030Z,42112
2017-06-28T09:19:28.432Z,36576
2017-06-28T09:20:42.103Z,30592
2017-06-28T09:21:53.307Z,31264
2017-06-28T09:23:04.312Z,24352
2017-06-28T09:24:15.371Z,25600
2017-06-28T09:25:26.499Z,17696
2017-06-28T09:26:54.438Z,11100
2017-06-28T09:28:11.955Z,10816
2017-06-28T09:29:23.436Z,9148
2017-06-28T09:30:34.491Z,7780
2017-06-28T09:31:45.621Z,6724
2017-06-28T09:32:56.851Z,6504
2017-06-28T09:34:09.250Z,6976
2017-06-28T09:35:21.232Z,6940
2017-06-28T09:36:33.021Z,6716
2017-06-28T09:37:44.494Z,6512
2017-06-28T09:38:55.528Z,5944
2017-06-28T09:40:08.342Z,4992
2017-06-28T09:41:19.656Z,5448
2017-06-28T09:42:30.819Z,5836
2017-06-28T09:43:42.194Z,6480
2017-06-28T09:44:53.201Z,8440
2017-06-28T09:46:04.193Z,7236
2017-06-28T09:47:15.269Z,8228
2017-06-28T09:48:26.279Z,15168
2017-06-28T09:49:37.277Z,9140
2017-06-28T09:50:48.299Z,8752
2017-06-28T09:51:59.334Z,8364
2017-06-28T09:53:11.263Z,7792
2017-06-28T09:54:22.487Z,7396
2017-06-28T09:55:33.526Z,6608
2017-06-28T09:56:44.528Z,5660
2017-06-28T09:57:55.526Z,4748
2017-06-28T09:59:06.651Z,3768
2017-06-28T10:00:17.664Z,3352
2017-06-28T10:01:28.660Z,3412
2017-06-28T10:03:03.551Z,3776
2017-06-28T10:04:15.840Z,4016
2017-06-28T10:05:26.838Z,4292
2017-06-28T10:06:37.897Z,4452
2017-06-28T10:07:48.898Z,4108
2017-06-28T10:08:59.893Z,4128
2017-06-28T10:10:10.881Z,4696
2017-06-28T10:11:21.895Z,5124
2017-06-28T10:12:32.901Z,4888
2017-06-28T10:13:44.099Z,4176
2017-06-28T10:14:55.299Z,3492
2017-06-28T10:16:06.370Z,3024
2017-06-28T10:17:17.567Z,2976
2017-06-28T10:18:28.566Z,3052
2017-06-28T10:19:40.419Z,3148
2017-06-28T10:20:52.995Z,3456
2017-06-28T10:22:04.043Z,3548
2017-06-28T10:23:15.254Z,3384
2017-06-28T10:24:26.257Z,3268
2017-06-28T10:25:37.246Z,3268
2017-06-28T10:26:48.251Z,2996
2017-06-28T10:27:59.321Z,2612
2017-06-28T10:29:10.589Z,2524
2017-06-28T10:30:21.583Z,2736
2017-06-28T10:31:32.579Z,2752
2017-06-28T10:32:43.581Z,2424
2017-06-28T10:33:54.660Z,1972
2017-06-28T10:35:05.671Z,1912
2017-06-28T10:36:16.666Z,2088
2017-06-28T10:37:27.688Z,2072
2017-06-28T10:38:38.697Z,1864
2017-06-28T10:39:50.292Z,1700
2017-06-28T10:41:01.282Z,1560
2017-06-28T10:42:12.493Z,1472
2017-06-28T10:43:23.494Z,1520
2017-06-28T10:44:34.497Z,1652
2017-06-28T10:45:45.744Z,1672
2017-06-28T10:46:57.610Z,1588
2017-06-28T10:48:08.617Z,1432
2017-06-28T10:49:19.611Z,1276
2017-06-28T10:50:30.616Z,1168
2017-06-28T10:51:41.662Z,1036
2017-06-28T10:52:52.658Z,948
2017-06-28T10:54:03.645Z,948
2017-06-28T10:55:15.033Z,940
2017-06-28T10:56:26.054Z,876
2017-06-28T10:57:37.318Z,836
2017-06-28T10:58:48.324Z,752
2017-06-28T10:59:59.318Z,700
2017-06-28T11:01:10.332Z,844
2017-06-28T11:02:21.340Z,1288
2017-06-28T11:03:32.386Z,1548
2017-06-28T11:04:43.404Z,1536
2017-06-28T11:05:54.601Z,1344
2017-06-28T11:07:05.811Z,1188
2017-06-28T11:08:17.231Z,1068
2017-06-28T11:09:28.826Z,1032
2017-06-28T11:10:39.818Z,1040
2017-06-28T11:11:50.833Z,1028
2017-06-28T11:13:01.845Z,1060
2017-06-28T11:14:13.095Z,1112
2017-06-28T11:15:24.088Z,1152
